createdAt,value
2017-09-09T00:00:09.021Z,3.93
2017-09-09T00:02:38.449Z,4.53
2017-09-09T00:05:06.788Z,3.83
2017-09-09T00:07:35.221Z,4.20
2017-09-09T00:10:04.723Z,4.30
2017-09-09T00:12:33.078Z,4.20
2017-09-09T00:15:02.591Z,4.47
2017-09-09T00:17:31.521Z,4.80
2017-09-09T00:20:00.763Z,4.67
2017-09-09T00:22:29.105Z,5.07
2017-09-09T00:24:57.795Z,5.03
2017-09-09T00:27:26.137Z,5.00
2017-09-09T00:29:54.514Z,4.83
2017-09-09T00:32:23.437Z,4.93
2017-09-09T00:34:51.811Z,5.20
2017-09-09T00:37:20.945Z,4.80
2017-09-09T00:39:49.910Z,4.77
2017-09-09T00:42:19.042Z,4.60
2017-09-09T00:44:48.601Z,5.57
2017-09-09T00:47:18.215Z,4.97
2017-09-09T00:49:46.674Z,4.60
2017-09-09T00:52:15.006Z,4.80
2017-09-09T00:54:43.684Z,4.83
2017-09-09T00:57:12.026Z,5.20
2017-09-09T00:59:41.131Z,5.00
2017-09-09T01:02:10.122Z,5.20
2017-09-09T01:04:38.495Z,4.87
2017-09-09T01:07:06.894Z,4.40
2017-09-09T01:09:36.397Z,4.90
2017-09-09T01:12:05.512Z,4.10
2017-09-09T01:14:33.878Z,4.40
2017-09-09T01:17:03.335Z,5.07
2017-09-09T01:19:31.885Z,4.67
2017-09-09T01:22:00.233Z,4.60
2017-09-09T01:24:29.141Z,5.40
2017-09-09T01:26:58.418Z,4.87
2017-09-09T01:29:26.751Z,4.83
2017-09-09T01:31:55.617Z,5.13
2017-09-09T01:34:23.950Z,4.40
2017-09-09T01:36:52.285Z,5.13
2017-09-09T01:39:21.743Z,5.00
2017-09-09T01:41:50.093Z,5.00
2017-09-09T01:44:21.196Z,5.13
2017-09-09T01:46:50.585Z,5.07
2017-09-09T01:49:18.960Z,4.90
2017-09-09T01:51:47.645Z,5.00
2017-09-09T01:54:16.993Z,5.00
2017-09-09T01:56:45.549Z,5.03
2017-09-09T01:59:13.908Z,5.00
2017-09-09T02:01:42.756Z,4.57
2017-09-09T02:04:11.436Z,4.07
2017-09-09T02:06:40.706Z,5.00
2017-09-09T02:09:10.592Z,4.03
2017-09-09T02:11:38.925Z,4.70
2017-09-09T02:14:07.279Z,4.20
2017-09-09T02:16:37.077Z,4.00
2017-09-09T02:19:06.795Z,3.90
2017-09-09T02:21:35.154Z,4.03
2017-09-09T02:24:04.542Z,3.57
2017-09-09T02:26:32.867Z,3.93
2017-09-09T02:29:02.043Z,3.60
2017-09-09T02:31:30.888Z,4.00
2017-09-09T02:33:59.240Z,3.27
2017-09-09T02:36:27.568Z,3.00
2017-09-09T02:38:56.316Z,3.90
2017-09-09T02:41:24.670Z,4.00
2017-09-09T02:43:53.015Z,3.53
2017-09-09T02:46:22.257Z,3.63
2017-09-09T02:48:50.622Z,3.63
2017-09-09T02:51:18.979Z,3.20
2017-09-09T02:53:49.246Z,3.40
2017-09-09T02:56:18.275Z,3.10
2017-09-09T02:58:46.632Z,3.80
2017-09-09T03:01:16.416Z,3.70
2017-09-09T03:03:44.785Z,3.77
2017-09-09T03:06:13.150Z,3.30
2017-09-09T03:08:43.346Z,3.50
2017-09-09T03:11:11.928Z,3.27
2017-09-09T03:13:42.162Z,4.07
2017-09-09T03:16:11.705Z,3.53
2017-09-09T03:18:40.058Z,3.60
2017-09-09T03:21:09.184Z,3.23
2017-09-09T03:23:38.680Z,3.50
2017-09-09T03:26:07.659Z,3.50
2017-09-09T03:28:35.997Z,3.43
2017-09-09T03:31:05.670Z,4.10
2017-09-09T03:33:34.032Z,4.37
2017-09-09T03:36:02.373Z,4.17
2017-09-09T03:38:31.040Z,4.23
2017-09-09T03:40:59.366Z,3.80
2017-09-09T03:43:27.699Z,4.67
2017-09-09T03:45:57.209Z,4.90
2017-09-09T03:48:25.886Z,5.10
2017-09-09T03:50:55.126Z,4.80
2017-09-09T03:53:23.761Z,5.00
2017-09-09T03:55:52.417Z,4.87
2017-09-09T03:58:22.700Z,5.50
2017-09-09T04:00:52.363Z,5.47
2017-09-09T04:03:20.711Z,5.60
2017-09-09T04:05:49.043Z,4.97
2017-09-09T04:08:17.802Z,4.80
2017-09-09T04:10:46.680Z,4.63
2017-09-09T04:13:15.049Z,6.00
2017-09-09T04:15:44.647Z,5.67
2017-09-09T04:18:12.983Z,4.73
2017-09-09T04:20:41.328Z,5.53
2017-09-09T04:23:11.594Z,5.30
2017-09-09T04:25:40.167Z,5.00
2017-09-09T04:28:08.545Z,5.23
2017-09-09T04:30:38.046Z,5.63
2017-09-09T04:33:07.136Z,5.87
2017-09-09T04:35:36.193Z,5.73
2017-09-09T04:38:04.813Z,5.57
2017-09-09T04:40:33.141Z,6.20
2017-09-09T04:43:01.527Z,5.77
2017-09-09T04:45:30.305Z,5.73
2017-09-09T04:47:58.672Z,8.27
2017-09-09T04:50:27.054Z,6.37
2017-09-09T04:52:55.814Z,5.87
2017-09-09T04:55:24.389Z,6.50
2017-09-09T04:57:52.963Z,5.60
2017-09-09T05:00:21.844Z,5.97
2017-09-09T05:02:50.230Z,5.47
2017-09-09T05:07:55.751Z,6.27
2017-09-09T05:10:24.504Z,5.90
2017-09-09T05:12:52.866Z,6.00
2017-09-09T05:15:23.402Z,8.20
2017-09-09T05:17:52.508Z,6.80
2017-09-09T05:20:20.856Z,6.53
2017-09-09T05:22:50.730Z,6.90
2017-09-09T05:25:19.089Z,6.30
2017-09-09T05:27:48.236Z,6.20
2017-09-09T05:30:17.354Z,6.30
2017-09-09T05:32:46.462Z,7.00
2017-09-09T05:35:15.680Z,6.80
2017-09-09T05:37:44.321Z,6.57
2017-09-09T05:40:12.686Z,7.67
2017-09-09T05:42:41.030Z,7.87
2017-09-09T05:45:09.626Z,6.77
2017-09-09T05:47:37.987Z,7.20
2017-09-09T05:50:06.322Z,6.30
2017-09-09T05:52:36.059Z,6.90
2017-09-09T05:55:05.154Z,7.20
2017-09-09T05:57:34.254Z,6.30
2017-09-09T06:00:02.920Z,7.10
2017-09-09T06:02:32.857Z,6.43
2017-09-09T06:05:01.215Z,5.80
2017-09-09T06:07:29.916Z,7.70
2017-09-09T06:09:58.260Z,7.07
2017-09-09T06:12:27.521Z,6.83
2017-09-09T06:14:56.453Z,7.23
2017-09-09T06:17:24.774Z,6.30
2017-09-09T06:19:53.119Z,7.03
2017-09-09T06:22:22.841Z,6.37
2017-09-09T06:24:51.202Z,6.13
2017-09-09T06:27:19.569Z,6.20
2017-09-09T06:29:48.201Z,6.30
2017-09-09T06:32:16.806Z,6.10
2017-09-09T06:34:46.130Z,6.73
2017-09-09T06:37:16.766Z,6.37
2017-09-09T06:39:45.645Z,5.67
2017-09-09T06:42:14.015Z,6.30
2017-09-09T06:44:43.340Z,5.90
2017-09-09T06:47:11.711Z,6.10
2017-09-09T06:49:40.827Z,6.40
2017-09-09T06:52:14.113Z,6.13
2017-09-09T06:54:44.001Z,6.90
2017-09-09T06:57:12.350Z,6.40
2017-09-09T06:59:43.041Z,6.63
2017-09-09T07:02:12.390Z,6.07
2017-09-09T07:04:40.729Z,6.80
2017-09-09T07:07:09.369Z,5.80
2017-09-09T07:09:37.739Z,6.00
2017-09-09T07:12:06.128Z,6.73
2017-09-09T07:14:34.817Z,6.50
2017-09-09T07:17:03.221Z,7.00
2017-09-09T07:19:32.527Z,7.20
2017-09-09T07:22:01.591Z,6.73
2017-09-09T07:24:29.964Z,5.50
2017-09-09T07:26:58.293Z,5.67
2017-09-09T07:29:26.967Z,6.67
2017-09-09T07:31:55.448Z,6.30
2017-09-09T07:34:24.987Z,5.70
2017-09-09T07:36:55.133Z,5.60
2017-09-09T07:39:23.494Z,6.80
2017-09-09T07:41:52.684Z,5.70
2017-09-09T07:44:22.208Z,5.40
2017-09-09T07:46:50.818Z,5.80
2017-09-09T07:49:19.153Z,6.47
2017-09-09T07:51:48.497Z,5.60
2017-09-09T07:54:16.821Z,5.10
2017-09-09T07:56:45.141Z,4.53
2017-09-09T07:59:14.809Z,4.93
2017-09-09T08:01:43.161Z,5.23
2017-09-09T08:04:11.504Z,5.13
2017-09-09T08:06:40.595Z,5.10
2017-09-09T08:09:10.641Z,5.40
2017-09-09T08:11:38.992Z,5.20
2017-09-09T08:14:07.883Z,4.40
2017-09-09T08:16:36.233Z,4.40
2017-09-09T08:19:04.562Z,5.47
2017-09-09T08:21:33.992Z,5.17
2017-09-09T08:24:02.348Z,4.80
2017-09-09T08:26:31.461Z,5.27
2017-09-09T08:29:00.428Z,5.00
2017-09-09T08:31:29.348Z,5.63
2017-09-09T08:33:57.705Z,6.30
2017-09-09T08:36:26.404Z,5.23
2017-09-09T08:38:55.358Z,5.50
2017-09-09T08:41:24.496Z,5.30
2017-09-09T08:43:53.140Z,5.03
2017-09-09T08:46:21.494Z,6.43
2017-09-09T08:48:50.971Z,5.57
2017-09-09T08:51:21.114Z,5.50
2017-09-09T08:53:49.451Z,5.50
2017-09-09T08:56:17.778Z,6.10
2017-09-09T08:58:47.034Z,4.97
2017-09-09T09:01:15.995Z,6.07
2017-09-09T09:03:44.608Z,5.37
2017-09-09T09:06:13.290Z,5.50
2017-09-09T09:08:41.650Z,5.50
2017-09-09T09:11:10.701Z,5.23
2017-09-09T09:13:39.862Z,5.00
2017-09-09T09:16:08.222Z,5.67
2017-09-09T09:18:36.553Z,5.77
2017-09-09T09:21:05.244Z,5.60
2017-09-09T09:23:33.592Z,5.70
2017-09-09T09:26:01.949Z,5.23
2017-09-09T09:28:30.901Z,4.97
2017-09-09T09:30:59.243Z,5.63
2017-09-09T09:33:27.593Z,5.50
2017-09-09T09:35:58.809Z,5.20
2017-09-09T09:38:27.280Z,5.63
2017-09-09T09:40:55.939Z,4.53
2017-09-09T09:43:25.178Z,4.47
2017-09-09T09:45:54.316Z,5.03
2017-09-09T09:48:22.638Z,4.40
2017-09-09T09:50:51.810Z,5.60
2017-09-09T09:53:20.250Z,5.00
2017-09-09T09:55:48.625Z,5.10
2017-09-09T09:58:17.378Z,5.00
2017-09-09T10:00:46.547Z,5.27
2017-09-09T10:03:14.894Z,5.70
2017-09-09T10:05:44.741Z,4.57
2017-09-09T10:08:13.104Z,4.13
2017-09-09T10:10:41.708Z,5.40
2017-09-09T10:13:10.382Z,5.20
2017-09-09T10:15:39.309Z,5.60
2017-09-09T10:18:07.629Z,4.70
2017-09-09T10:20:37.677Z,4.87
2017-09-09T10:23:07.188Z,4.43
2017-09-09T10:25:35.528Z,4.10
2017-09-09T10:28:04.948Z,4.13
2017-09-09T10:30:33.516Z,3.90
2017-09-09T10:33:02.960Z,4.13
2017-09-09T10:35:31.663Z,5.00
2017-09-09T10:38:00.092Z,6.70
2017-09-09T10:40:28.459Z,4.30
2017-09-09T10:42:57.457Z,2.10
2017-09-09T10:45:25.805Z,2.17
2017-09-09T10:47:54.155Z,2.70
2017-09-09T10:50:23.528Z,2.70
2017-09-09T10:52:51.913Z,1.70
2017-09-09T10:55:20.251Z,1.80
2017-09-09T10:57:49.141Z,1.37
2017-09-09T11:00:17.539Z,1.93
2017-09-09T11:02:47.435Z,1.30
2017-09-09T11:05:17.078Z,1.20
2017-09-09T11:07:45.453Z,1.70
2017-09-09T11:10:15.360Z,1.40
2017-09-09T11:12:45.916Z,1.87
2017-09-09T11:15:15.508Z,1.77
2017-09-09T11:17:43.869Z,2.03
2017-09-09T11:20:13.710Z,1.70
2017-09-09T11:22:42.767Z,2.07
2017-09-09T11:25:11.818Z,2.40
2017-09-09T11:27:41.524Z,2.23
2017-09-09T11:30:10.722Z,2.70
2017-09-09T11:32:39.148Z,1.93
2017-09-09T11:35:08.676Z,2.10
2017-09-09T11:37:38.589Z,1.60
2017-09-09T11:40:07.710Z,2.00
2017-09-09T11:42:36.403Z,2.10
2017-09-09T11:45:05.325Z,2.10
2017-09-09T11:47:33.718Z,1.93
2017-09-09T11:50:03.302Z,2.30
2017-09-09T11:52:31.706Z,2.33
2017-09-09T11:55:00.668Z,2.40
2017-09-09T11:57:31.428Z,2.10
2017-09-09T12:00:00.457Z,2.67
2017-09-09T12:02:30.777Z,3.60
2017-09-09T12:04:59.139Z,2.80
2017-09-09T12:07:27.478Z,2.30
2017-09-09T12:09:57.117Z,2.10
2017-09-09T12:12:27.703Z,2.20
2017-09-09T12:14:57.029Z,2.60
2017-09-09T12:17:26.620Z,2.07
2017-09-09T12:19:55.035Z,2.00
2017-09-09T12:22:23.365Z,2.20
2017-09-09T12:24:52.049Z,2.10
2017-09-09T12:27:20.396Z,2.20
2017-09-09T12:29:49.113Z,1.80
2017-09-09T12:32:18.150Z,1.60
2017-09-09T12:34:47.003Z,3.30
2017-09-09T12:37:16.045Z,2.37
2017-09-09T12:39:44.788Z,1.97
2017-09-09T12:42:13.402Z,2.33
2017-09-09T12:44:42.178Z,1.77
2017-09-09T12:47:11.059Z,2.40
2017-09-09T12:49:39.660Z,2.03
2017-09-09T12:52:08.074Z,2.27
2017-09-09T12:54:36.879Z,3.40
2017-09-09T12:57:05.474Z,1.97
2017-09-09T12:59:33.825Z,2.40
2017-09-09T13:02:02.497Z,2.40
2017-09-09T13:04:32.510Z,1.87
2017-09-09T13:07:02.502Z,2.30
2017-09-09T13:09:31.293Z,2.40
2017-09-09T13:11:59.632Z,2.27
2017-09-09T13:14:28.750Z,2.60
2017-09-09T13:16:58.779Z,2.73
2017-09-09T13:19:27.309Z,2.60
2017-09-09T13:21:55.664Z,2.77
2017-09-09T13:24:24.300Z,2.73
2017-09-09T13:26:54.301Z,3.50
2017-09-09T13:29:23.396Z,2.50
2017-09-09T13:31:52.248Z,2.53
2017-09-09T13:34:20.649Z,3.30
2017-09-09T13:36:48.977Z,2.60
2017-09-09T13:39:17.975Z,3.13
2017-09-09T13:41:46.349Z,3.50
2017-09-09T13:44:16.370Z,3.20
2017-09-09T13:46:46.599Z,2.90
2017-09-09T13:49:14.988Z,3.00
2017-09-09T13:51:44.155Z,3.30
2017-09-09T13:54:14.583Z,3.50
2017-09-09T13:56:42.985Z,3.20
2017-09-09T13:59:11.319Z,4.13
2017-09-09T14:01:40.019Z,3.63
2017-09-09T14:04:09.288Z,3.67
2017-09-09T14:06:37.646Z,3.60
2017-09-09T14:09:06.373Z,3.20
2017-09-09T14:11:35.429Z,3.87
2017-09-09T14:14:04.652Z,3.43
2017-09-09T14:16:33.298Z,4.20
2017-09-09T14:19:01.639Z,3.97
2017-09-09T14:21:29.995Z,4.17
2017-09-09T14:24:01.369Z,3.93
2017-09-09T14:26:29.702Z,3.60
2017-09-09T14:28:58.093Z,4.40
2017-09-09T14:31:28.174Z,4.23
2017-09-09T14:33:56.520Z,4.20
2017-09-09T14:36:26.692Z,3.53
2017-09-09T14:38:55.323Z,3.80
2017-09-09T14:41:25.379Z,4.10
2017-09-09T14:43:53.793Z,3.80
2017-09-09T14:46:23.539Z,4.20
2017-09-09T14:48:52.706Z,3.70
2017-09-09T14:51:21.710Z,3.43
2017-09-09T14:53:50.451Z,4.20
2017-09-09T14:56:18.851Z,4.40
2017-09-09T14:58:48.680Z,4.27
2017-09-09T15:01:17.551Z,4.53
2017-09-09T15:03:46.665Z,3.90
2017-09-09T15:06:16.624Z,4.30
2017-09-09T15:08:45.866Z,4.17
2017-09-09T15:11:14.244Z,4.07
2017-09-09T15:13:43.461Z,3.70
2017-09-09T15:16:12.176Z,2.10
2017-09-09T15:18:41.552Z,2.27
2017-09-09T15:21:09.963Z,2.10
2017-09-09T15:23:40.189Z,2.00
2017-09-09T15:26:08.699Z,2.00
2017-09-09T15:28:37.459Z,1.80
2017-09-09T15:31:06.953Z,1.77
2017-09-09T15:33:35.425Z,1.83
2017-09-09T15:36:03.839Z,1.97
2017-09-09T15:38:32.752Z,1.90
2017-09-09T15:41:01.175Z,1.80
2017-09-09T15:43:29.556Z,2.20
2017-09-09T15:45:59.216Z,1.37
2017-09-09T15:48:27.590Z,1.93
2017-09-09T15:50:55.947Z,1.63
2017-09-09T15:53:25.026Z,1.40
2017-09-09T15:55:53.467Z,1.50
2017-09-09T15:58:21.830Z,2.30
2017-09-09T16:00:50.788Z,1.70
2017-09-09T16:03:19.244Z,2.20
2017-09-09T16:05:48.049Z,1.80
2017-09-09T16:08:16.703Z,1.80
2017-09-09T16:10:45.102Z,1.70
2017-09-09T16:13:13.476Z,2.07
2017-09-09T16:15:42.259Z,1.93
2017-09-09T16:18:10.623Z,2.37
2017-09-09T16:20:39.047Z,1.87
2017-09-09T16:23:07.667Z,2.20
2017-09-09T16:25:36.009Z,2.00
2017-09-09T16:28:04.333Z,2.07
2017-09-09T16:30:33.065Z,2.33
2017-09-09T16:33:02.120Z,2.20
2017-09-09T16:35:30.451Z,2.10
2017-09-09T16:37:59.169Z,2.30
2017-09-09T16:40:27.510Z,2.10
2017-09-09T16:42:56.609Z,1.90
2017-09-09T16:45:25.466Z,1.87
2017-09-09T16:47:53.803Z,2.60
2017-09-09T16:50:22.903Z,2.80
2017-09-09T16:52:52.956Z,2.80
2017-09-09T16:55:21.308Z,1.80
2017-09-09T16:57:49.666Z,2.40
2017-09-09T17:00:19.331Z,1.93
2017-09-09T17:02:48.571Z,1.80
2017-09-09T17:05:17.671Z,2.30
2017-09-09T17:07:46.376Z,2.13
2017-09-09T17:10:14.713Z,2.00
2017-09-09T17:12:43.062Z,2.30
2017-09-09T17:15:11.874Z,1.70
2017-09-09T17:17:40.251Z,2.40
2017-09-09T17:20:08.581Z,1.80
2017-09-09T17:22:37.344Z,2.17
2017-09-09T17:25:06.518Z,1.70
2017-09-09T17:27:34.869Z,1.77
2017-09-09T17:30:03.618Z,1.83
2017-09-09T17:32:33.347Z,1.60
2017-09-09T17:35:02.663Z,1.70
2017-09-09T17:37:31.330Z,1.80
2017-09-09T17:40:00.369Z,1.97
2017-09-09T17:42:28.733Z,1.90
2017-09-09T17:44:57.665Z,2.10
2017-09-09T17:47:26.789Z,2.20
2017-09-09T17:49:55.125Z,2.70
2017-09-09T17:52:24.054Z,2.23
2017-09-09T17:54:52.410Z,2.60
2017-09-09T17:57:21.522Z,3.00
2017-09-09T17:59:51.169Z,3.03
2017-09-09T18:02:19.938Z,3.13
2017-09-09T18:04:48.267Z,3.40
2017-09-09T18:07:16.969Z,3.00
2017-09-09T18:09:45.329Z,3.13
2017-09-09T18:12:13.684Z,3.13
2017-09-09T18:14:42.302Z,3.70
2017-09-09T18:17:10.696Z,3.63
2017-09-09T18:19:40.222Z,4.33
2017-09-09T18:22:09.728Z,4.07
2017-09-09T18:24:38.084Z,4.13
2017-09-09T18:27:07.688Z,3.90
2017-09-09T18:29:37.023Z,4.03
2017-09-09T18:32:05.377Z,4.13
2017-09-09T18:34:34.487Z,3.90
2017-09-09T18:37:03.886Z,3.63
2017-09-09T18:39:32.864Z,4.13
2017-09-09T18:42:01.282Z,4.00
2017-09-09T18:44:29.947Z,3.63
2017-09-09T18:46:58.803Z,3.50
2017-09-09T18:49:27.172Z,5.03
2017-09-09T18:51:56.238Z,4.53
2017-09-09T18:54:25.531Z,5.50
2017-09-09T18:56:53.888Z,4.07
2017-09-09T18:59:24.707Z,3.83
2017-09-09T19:01:53.052Z,4.50
2017-09-09T19:04:21.419Z,4.27
2017-09-09T19:06:50.162Z,5.50
2017-09-09T19:09:19.406Z,6.00
2017-09-09T19:11:47.743Z,4.80
2017-09-09T19:14:16.588Z,4.10
2017-09-09T19:16:44.937Z,3.00
2017-09-09T19:19:14.079Z,3.53
2017-09-09T19:21:42.684Z,3.43
2017-09-09T19:24:11.013Z,3.20
2017-09-09T19:26:39.354Z,3.60
2017-09-09T19:29:08.804Z,3.77
2017-09-09T19:31:37.137Z,4.10
2017-09-09T19:34:06.230Z,4.60
2017-09-09T19:36:35.030Z,4.50
2017-09-09T19:39:04.797Z,5.27
2017-09-09T19:41:33.143Z,4.50
2017-09-09T19:44:02.099Z,4.40
2017-09-09T19:46:30.641Z,4.30
2017-09-09T19:48:59.000Z,4.40
2017-09-09T19:51:27.683Z,4.60
2017-09-09T19:53:56.050Z,4.80
2017-09-09T19:56:24.614Z,5.97
2017-09-09T19:58:54.075Z,5.50
2017-09-09T20:01:23.034Z,5.23
2017-09-09T20:03:52.171Z,5.60
2017-09-09T20:06:21.026Z,4.93
2017-09-09T20:08:49.401Z,5.13
2017-09-09T20:11:17.745Z,5.20
2017-09-09T20:13:46.376Z,5.00
2017-09-09T20:16:15.088Z,5.40
2017-09-09T20:18:43.443Z,6.17
2017-09-09T20:21:13.265Z,5.30
2017-09-09T20:23:42.028Z,5.03
2017-09-09T20:26:10.380Z,5.47
2017-09-09T20:28:39.716Z,5.50
2017-09-09T20:31:08.041Z,5.53
2017-09-09T20:33:36.736Z,4.97
2017-09-09T20:36:05.394Z,5.33
2017-09-09T20:38:34.720Z,5.23
2017-09-09T20:41:04.603Z,5.53
2017-09-09T20:43:34.242Z,4.80
2017-09-09T20:46:02.565Z,4.97
2017-09-09T20:48:32.104Z,5.10
2017-09-09T20:51:00.810Z,4.23
2017-09-09T20:53:29.137Z,4.70
2017-09-09T20:55:58.120Z,5.20
2017-09-09T20:58:27.168Z,6.00
2017-09-09T21:00:56.270Z,5.30
2017-09-09T21:03:24.981Z,6.27
2017-09-09T21:05:53.716Z,6.93
2017-09-09T21:08:22.072Z,5.93
2017-09-09T21:10:51.178Z,6.83
2017-09-09T21:13:20.030Z,6.70
2017-09-09T21:15:49.167Z,7.70
2017-09-09T21:18:17.520Z,8.00
2017-09-09T21:20:46.275Z,6.67
2017-09-09T21:23:14.625Z,5.40
2017-09-09T21:25:42.969Z,5.30
2017-09-09T21:28:11.720Z,5.43
2017-09-09T21:30:40.068Z,5.87
2017-09-09T21:33:09.186Z,4.90
2017-09-09T21:35:37.811Z,6.10
2017-09-09T21:38:06.985Z,5.90
2017-09-09T21:40:35.333Z,4.90
2017-09-09T21:43:04.862Z,7.20
2017-09-09T21:45:34.027Z,6.60
2017-09-09T21:48:02.392Z,7.83
2017-09-09T21:50:31.206Z,7.20
2017-09-09T21:52:59.563Z,6.43
2017-09-09T21:55:27.915Z,7.10
2017-09-09T21:57:57.558Z,5.40
2017-09-09T22:00:26.923Z,5.10
2017-09-09T22:02:55.258Z,5.40
2017-09-09T22:05:23.993Z,5.50
2017-09-09T22:07:52.339Z,5.47
2017-09-09T22:10:20.687Z,6.03
2017-09-09T22:12:49.890Z,4.80
2017-09-09T22:15:20.385Z,5.43
2017-09-09T22:17:49.502Z,5.23
2017-09-09T22:20:18.215Z,6.40
2017-09-09T22:22:46.555Z,5.90
2017-09-09T22:25:15.661Z,5.80
2017-09-09T22:27:44.434Z,4.83
2017-09-09T22:30:13.363Z,5.93
2017-09-09T22:32:41.714Z,4.90
2017-09-09T22:35:10.505Z,5.43
2017-09-09T22:37:38.857Z,5.60
2017-09-09T22:40:08.006Z,6.10
2017-09-09T22:42:36.695Z,6.00
2017-09-09T22:45:06.411Z,6.10
2017-09-09T22:47:35.244Z,7.10
2017-09-09T22:50:04.100Z,6.70
2017-09-09T22:52:32.458Z,6.80
2017-09-09T22:55:00.813Z,6.23
2017-09-09T22:57:30.602Z,6.60
2017-09-09T22:59:58.984Z,5.70
2017-09-09T23:02:28.614Z,7.50
2017-09-09T23:04:57.961Z,6.77
2017-09-09T23:07:26.477Z,7.13
2017-09-09T23:09:56.249Z,6.00
2017-09-09T23:12:24.879Z,7.10
2017-09-09T23:14:54.020Z,7.63
2017-09-09T23:17:23.540Z,6.70
2017-09-09T23:19:52.279Z,8.03
2017-09-09T23:22:21.454Z,7.13
2017-09-09T23:24:51.240Z,7.00
2017-09-09T23:27:20.272Z,7.33
2017-09-09T23:29:48.645Z,6.97
2017-09-09T23:32:20.277Z,7.30
2017-09-09T23:34:48.961Z,7.90
2017-09-09T23:37:18.213Z,7.90
2017-09-09T23:39:46.566Z,6.97
2017-09-09T23:42:15.461Z,8.10
2017-09-09T23:44:44.456Z,8.00
2017-09-09T23:47:13.654Z,7.90
2017-09-09T23:49:43.815Z,7.93
2017-09-09T23:52:12.359Z,7.43
2017-09-09T23:54:40.726Z,8.37
2017-09-09T23:57:09.353Z,7.10
2017-09-09T23:59:37.686Z,7.03
